Time;durP1;ratioP1;P1;durP2;ratioP2;P2;SDS_P1;SDS_P2;PMS_P1;PMS_P2;Temp;Humidity;BMP_temperature;BMP_pressure;BME280_temperature;BME280_humidity;BME280_pressure;Samples;Min_cycle;Max_cycle;Signal;HPM_P1;HPM_P2
2023/05/04 00:04:12;;;;;;;2.15;0.95;;;;;;;;;;10425328;28;20213;-75
2023/05/04 00:09:14;;;;;;;1.73;0.63;;;;;;;;;;10433231;28;20260;-75
2023/05/04 00:14:15;;;;;;;2.35;1.00;;;;;;;;;;10451709;28;20260;-78
2023/05/04 00:19:18;;;;;;;1.85;0.70;;;;;;;;;;10461721;28;20215;-77
2023/05/04 00:24:19;;;;;;;0.70;0.70;;;;;;;;;;10446784;28;20213;-78
2023/05/04 00:29:20;;;;;;;1.60;1.02;;;;;;;;;;10445078;28;20213;-78
2023/05/04 00:34:21;;;;;;;0.80;0.80;;;;;;;;;;10436681;28;20341;-76
2023/05/04 00:39:22;;;;;;;2.80;0.60;;;;;;;;;;10434550;28;20316;-77
2023/05/04 00:44:23;;;;;;;3.90;1.10;;;;;;;;;;10430825;28;20475;-80
2023/05/04 00:49:24;;;;;;;3.25;1.15;;;;;;;;;;10465995;28;20226;-78
2023/05/04 00:54:26;;;;;;;8.82;1.63;;;;;;;;;;10448328;28;20284;-78
2023/05/04 00:59:27;;;;;;;1.90;1.00;;;;;;;;;;10429218;28;20214;-78
2023/05/04 01:04:28;;;;;;;0.50;0.50;;;;;;;;;;10442612;28;20303;-77
2023/05/04 01:09:38;;;;;;;2.25;1.20;;;;;;;;;;10415706;28;20225;-75
2023/05/04 01:14:39;;;;;;;1.80;1.00;;;;;;;;;;10448341;28;20593;-78
2023/05/04 01:19:40;;;;;;;1.00;1.00;;;;;;;;;;10447871;28;20223;-78
2023/05/04 01:24:41;;;;;;;1.00;1.00;;;;;;;;;;10422648;28;20827;-76
2023/05/04 01:29:51;;;;;;;3.03;1.13;;;;;;;;;;10442607;28;20753;-76
2023/05/04 01:34:52;;;;;;;1.30;1.30;;;;;;;;;;10446592;28;20262;-77
2023/05/04 01:39:53;;;;;;;3.13;1.70;;;;;;;;;;10450409;28;20230;-76
2023/05/04 01:44:55;;;;;;;0.93;0.93;;;;;;;;;;10446371;28;20939;-76
2023/05/04 01:49:56;;;;;;;1.90;1.00;;;;;;;;;;10431126;28;20230;-77
2023/05/04 01:54:57;;;;;;;0.82;0.82;;;;;;;;;;10431800;28;20292;-78
2023/05/04 01:59:59;;;;;;;2.53;1.00;;;;;;;;;;10428968;28;20225;-78
2023/05/04 02:05:00;;;;;;;2.15;1.23;;;;;;;;;;10427512;28;20321;-79
2023/05/04 02:10:02;;;;;;;1.00;1.00;;;;;;;;;;10428714;28;20217;-77
2023/05/04 02:15:03;;;;;;;3.55;1.40;;;;;;;;;;10427749;28;20565;-78
2023/05/04 02:20:05;;;;;;;1.35;1.10;;;;;;;;;;10435856;28;20218;-75
2023/05/04 02:25:06;;;;;;;0.80;0.80;;;;;;;;;;10422671;28;20278;-76
2023/05/04 02:30:08;;;;;;;0.70;0.70;;;;;;;;;;10435152;28;20210;-75
2023/05/04 02:35:09;;;;;;;1.52;1.13;;;;;;;;;;10424850;28;20283;-76
2023/05/04 02:40:11;;;;;;;0.93;0.90;;;;;;;;;;10425903;28;20273;-75
2023/05/04 02:45:12;;;;;;;2.05;0.93;;;;;;;;;;10425138;28;20202;-75
2023/05/04 02:50:13;;;;;;;1.48;0.95;;;;;;;;;;10421714;28;20230;-74
2023/05/04 02:55:15;;;;;;;1.17;1.13;;;;;;;;;;10425729;28;20226;-74
2023/05/04 03:00:17;;;;;;;2.35;1.50;;;;;;;;;;10424236;28;20822;-73
2023/05/04 03:05:18;;;;;;;0.98;0.95;;;;;;;;;;10429284;28;20206;-75
2023/05/04 03:10:19;;;;;;;0.90;0.90;;;;;;;;;;10422832;28;20214;-77
2023/05/04 03:15:20;;;;;;;2.42;1.15;;;;;;;;;;10436804;28;20198;-77
2023/05/04 03:20:21;;;;;;;1.65;1.05;;;;;;;;;;10440668;28;20844;-74
2023/05/04 03:25:22;;;;;;;4.15;0.70;;;;;;;;;;10432246;28;20206;-75
2023/05/04 03:30:24;;;;;;;2.95;1.23;;;;;;;;;;10447106;28;20883;-76
2023/05/04 03:35:25;;;;;;;2.03;1.42;;;;;;;;;;10430128;28;20210;-74
2023/05/04 03:40:30;;;;;;;1.13;1.00;;;;;;;;;;10429347;28;20228;-75
2023/05/04 03:45:31;;;;;;;0.95;0.93;;;;;;;;;;10438722;28;20233;-73
2023/05/04 03:50:32;;;;;;;1.55;1.15;;;;;;;;;;10442193;28;20703;-75
2023/05/04 03:55:33;;;;;;;1.08;1.08;;;;;;;;;;10436521;28;20671;-75
2023/05/04 04:00:34;;;;;;;4.00;1.10;;;;;;;;;;10425859;28;20222;-74
2023/05/04 04:05:43;;;;;;;0.85;0.85;;;;;;;;;;10437969;28;20249;-74
2023/05/04 04:10:45;;;;;;;2.47;0.90;;;;;;;;;;10423814;28;20299;-75
2023/05/04 04:15:46;;;;;;;5.15;1.00;;;;;;;;;;10437837;28;20819;-72
2023/05/04 04:20:47;;;;;;;1.35;1.13;;;;;;;;;;10431433;28;20213;-75
2023/05/04 04:25:48;;;;;;;2.25;1.15;;;;;;;;;;10422938;28;20223;-76
2023/05/04 04:30:50;;;;;;;1.00;0.85;;;;;;;;;;10414271;28;20230;-75
2023/05/04 04:35:52;;;;;;;4.18;1.52;;;;;;;;;;10430320;28;20240;-75
2023/05/04 04:40:53;;;;;;;1.05;1.05;;;;;;;;;;10430886;28;20936;-74
2023/05/04 04:45:54;;;;;;;3.30;1.65;;;;;;;;;;10420097;28;20218;-74
2023/05/04 04:50:55;;;;;;;2.28;1.80;;;;;;;;;;10433164;28;20223;-78
2023/05/04 04:55:56;;;;;;;1.77;1.60;;;;;;;;;;10431629;28;20214;-76
2023/05/04 05:00:57;;;;;;;4.20;1.67;;;;;;;;;;10440819;28;20270;-76
2023/05/04 05:06:00;;;;;;;3.22;1.80;;;;;;;;;;10445353;28;20218;-76
2023/05/04 05:11:01;;;;;;;2.17;1.73;;;;;;;;;;10447682;28;20223;-75
2023/05/04 05:16:02;;;;;;;4.65;1.35;;;;;;;;;;10445366;28;20222;-76
2023/05/04 05:21:04;;;;;;;2.42;1.52;;;;;;;;;;10437889;28;20211;-76
2023/05/04 05:26:05;;;;;;;4.30;2.03;;;;;;;;;;10435223;28;20214;-79
2023/05/04 05:31:06;;;;;;;4.68;1.55;;;;;;;;;;10437924;28;20325;-76
2023/05/04 05:36:07;;;;;;;1.85;1.75;;;;;;;;;;10433652;28;20251;-76
2023/05/04 05:41:08;;;;;;;3.78;1.77;;;;;;;;;;10406601;28;20211;-76
2023/05/04 05:46:10;;;;;;;3.08;1.58;;;;;;;;;;10423002;28;20272;-75
2023/05/04 05:51:11;;;;;;;1.88;1.40;;;;;;;;;;10398827;28;20389;-78
2023/05/04 05:56:13;;;;;;;4.63;1.85;;;;;;;;;;10430619;28;20590;-77
2023/05/04 06:01:14;;;;;;;7.45;1.95;;;;;;;;;;10418364;28;20233;-79
2023/05/04 06:06:16;;;;;;;4.03;1.80;;;;;;;;;;10435258;28;20268;-77
2023/05/04 06:11:17;;;;;;;1.98;1.75;;;;;;;;;;10432225;28;20221;-78
2023/05/04 06:16:18;;;;;;;2.00;1.90;;;;;;;;;;10429140;28;20222;-77
2023/05/04 06:21:19;;;;;;;2.35;1.80;;;;;;;;;;10435811;28;20215;-77
2023/05/04 06:26:21;;;;;;;4.38;2.03;;;;;;;;;;10425300;28;20215;-76
2023/05/04 06:31:23;;;;;;;2.47;1.60;;;;;;;;;;10419327;28;20773;-76
2023/05/04 06:36:25;;;;;;;3.70;2.17;;;;;;;;;;10422607;28;20259;-78
2023/05/04 06:41:25;;;;;;;2.83;1.65;;;;;;;;;;10433529;28;20219;-78
2023/05/04 06:46:27;;;;;;;5.65;1.75;;;;;;;;;;10440161;28;20275;-77
2023/05/04 06:51:28;;;;;;;1.60;1.50;;;;;;;;;;10434346;28;20776;-80
2023/05/04 06:56:29;;;;;;;4.95;2.20;;;;;;;;;;10436155;28;20210;-78
2023/05/04 07:01:31;;;;;;;4.10;2.10;;;;;;;;;;10445385;28;20229;-78
2023/05/04 07:06:32;;;;;;;5.50;2.50;;;;;;;;;;10413834;28;20252;-75
2023/05/04 07:11:33;;;;;;;6.13;1.95;;;;;;;;;;10433984;28;20233;-77
2023/05/04 07:16:37;;;;;;;2.55;1.70;;;;;;;;;;10417085;28;20337;-77
2023/05/04 07:21:38;;;;;;;7.18;2.03;;;;;;;;;;10428807;28;20698;-76
2023/05/04 07:26:39;;;;;;;6.78;2.05;;;;;;;;;;10423203;28;20210;-76
2023/05/04 07:31:40;;;;;;;5.05;2.10;;;;;;;;;;10424380;28;20257;-77
2023/05/04 07:36:41;;;;;;;4.30;2.00;;;;;;;;;;10435837;28;20751;-78
2023/05/04 07:41:42;;;;;;;3.45;1.88;;;;;;;;;;10410903;28;20210;-76
2023/05/04 07:46:43;;;;;;;2.92;1.70;;;;;;;;;;10439194;28;20222;-77
2023/05/04 07:51:44;;;;;;;1.67;1.58;;;;;;;;;;10432493;28;20256;-77
2023/05/04 07:56:45;;;;;;;10.02;1.40;;;;;;;;;;10429122;28;20216;-75
2023/05/04 08:01:47;;;;;;;7.45;1.13;;;;;;;;;;10436725;28;21072;-78
2023/05/04 08:06:48;;;;;;;3.35;1.30;;;;;;;;;;10432796;28;20261;-77
2023/05/04 08:11:49;;;;;;;1.65;1.23;;;;;;;;;;10422677;28;20273;-80
2023/05/04 08:16:50;;;;;;;1.65;1.55;;;;;;;;;;10430933;28;20214;-75
2023/05/04 08:21:51;;;;;;;1.70;1.60;;;;;;;;;;10424436;28;20302;-77
2023/05/04 08:26:52;;;;;;;1.00;1.00;;;;;;;;;;10406267;28;20220;-79
2023/05/04 08:31:57;;;;;;;1.33;1.08;;;;;;;;;;10428460;28;20780;-79
2023/05/04 08:36:58;;;;;;;2.30;1.73;;;;;;;;;;10438278;28;20214;-76
2023/05/04 08:41:59;;;;;;;1.33;1.20;;;;;;;;;;10414552;28;20221;-79
2023/05/04 08:47:03;;;;;;;3.40;1.23;;;;;;;;;;10436192;28;20252;-76
2023/05/04 08:52:07;;;;;;;1.65;1.55;;;;;;;;;;10431162;28;20701;-78
2023/05/04 08:57:08;;;;;;;7.38;1.60;;;;;;;;;;10442192;28;20241;-78
2023/05/04 09:02:10;;;;;;;1.80;0.95;;;;;;;;;;10442490;28;22604;-78
2023/05/04 09:07:11;;;;;;;2.30;1.35;;;;;;;;;;10433412;28;20701;-75
2023/05/04 09:12:12;;;;;;;1.33;1.23;;;;;;;;;;10451446;28;20222;-74
2023/05/04 09:17:16;;;;;;;1.77;1.52;;;;;;;;;;10441268;28;20225;-78
2023/05/04 09:22:18;;;;;;;3.17;1.20;;;;;;;;;;10428456;28;20629;-77
2023/05/04 09:27:19;;;;;;;1.20;1.15;;;;;;;;;;10433457;28;20210;-77
2023/05/04 09:32:20;;;;;;;1.60;1.50;;;;;;;;;;10445971;28;20561;-76
2023/05/04 09:37:21;;;;;;;2.90;2.03;;;;;;;;;;10424949;28;20316;-74
2023/05/04 09:42:23;;;;;;;2.08;1.98;;;;;;;;;;10430475;28;20244;-75
2023/05/04 09:47:30;;;;;;;2.75;1.40;;;;;;;;;;10435810;28;20226;-75
2023/05/04 09:52:32;;;;;;;1.92;1.45;;;;;;;;;;10431687;28;20304;-75
2023/05/04 09:57:34;;;;;;;2.08;1.70;;;;;;;;;;10449212;28;20244;-77
2023/05/04 10:02:35;;;;;;;3.35;1.33;;;;;;;;;;10430118;28;20717;-78
2023/05/04 10:07:37;;;;;;;2.85;1.30;;;;;;;;;;10432364;28;20219;-74
2023/05/04 10:12:38;;;;;;;5.60;1.38;;;;;;;;;;10426074;28;20677;-78
2023/05/04 10:17:39;;;;;;;1.80;1.70;;;;;;;;;;10416401;28;20753;-78
2023/05/04 10:22:40;;;;;;;4.10;1.80;;;;;;;;;;10437163;28;20302;-78
2023/05/04 10:27:50;;;;;;;2.03;1.77;;;;;;;;;;10440132;28;20724;-79
2023/05/04 10:32:54;;;;;;;2.80;2.60;;;;;;;;;;10442286;28;20224;-74
2023/05/04 10:37:55;;;;;;;1.95;1.85;;;;;;;;;;10441868;28;20223;-75
2023/05/04 10:42:56;;;;;;;2.72;1.98;;;;;;;;;;10444864;28;20222;-74
2023/05/04 10:47:57;;;;;;;1.58;1.58;;;;;;;;;;10439766;28;20272;-75
2023/05/04 10:52:59;;;;;;;2.83;1.92;;;;;;;;;;10434642;28;20256;-77
2023/05/04 10:58:00;;;;;;;1.67;1.58;;;;;;;;;;10447472;28;20228;-75
2023/05/04 11:03:06;;;;;;;2.47;2.10;;;;;;;;;;10439012;28;20599;-77
2023/05/04 11:08:23;;;;;;;3.45;1.50;;;;;;;;;;10442773;28;20214;-76
2023/05/04 11:13:25;;;;;;;1.67;1.58;;;;;;;;;;10444759;28;20217;-76
2023/05/04 11:18:27;;;;;;;3.42;1.55;;;;;;;;;;10429081;28;20210;-74
2023/05/04 11:23:29;;;;;;;1.90;1.80;;;;;;;;;;10442987;28;20710;-76
2023/05/04 11:28:36;;;;;;;1.50;1.38;;;;;;;;;;10428956;28;20583;-75
2023/05/04 11:33:37;;;;;;;1.80;1.70;;;;;;;;;;10443989;28;20596;-75
2023/05/04 11:38:38;;;;;;;2.08;1.88;;;;;;;;;;10442320;28;20219;-79
2023/05/04 11:43:41;;;;;;;1.60;1.50;;;;;;;;;;10442333;28;20211;-77
2023/05/04 11:48:42;;;;;;;2.72;1.50;;;;;;;;;;10440822;28;20222;-76
2023/05/04 11:53:43;;;;;;;4.60;1.52;;;;;;;;;;10444871;28;20234;-77
2023/05/04 11:58:44;;;;;;;1.38;1.27;;;;;;;;;;10442550;28;20226;-74
2023/05/04 12:03:45;;;;;;;4.03;1.40;;;;;;;;;;10436766;28;20222;-77
2023/05/04 12:08:46;;;;;;;1.38;1.25;;;;;;;;;;10419549;28;20316;-79
2023/05/04 12:13:48;;;;;;;1.95;1.52;;;;;;;;;;10413870;28;20229;-74
2023/05/04 12:19:01;;;;;;;1.63;1.17;;;;;;;;;;10427134;28;20225;-77
2023/05/04 12:24:02;;;;;;;3.83;1.40;;;;;;;;;;10420610;28;20276;-78
2023/05/04 12:29:03;;;;;;;2.63;1.13;;;;;;;;;;10432739;28;20219;-78
2023/05/04 12:34:04;;;;;;;2.38;1.10;;;;;;;;;;10440472;28;20810;-78
2023/05/04 12:39:06;;;;;;;1.63;1.30;;;;;;;;;;10440363;28;20245;-77
2023/05/04 12:44:10;;;;;;;1.50;1.27;;;;;;;;;;10447798;28;20822;-77
2023/05/04 12:49:13;;;;;;;1.65;1.02;;;;;;;;;;10431004;28;20317;-78
2023/05/04 12:54:14;;;;;;;1.17;1.17;;;;;;;;;;10446101;28;20212;-79
2023/05/04 12:59:15;;;;;;;1.00;1.00;;;;;;;;;;10439432;28;20226;-78
2023/05/04 13:04:16;;;;;;;1.15;1.10;;;;;;;;;;10444238;28;20648;-77
2023/05/04 13:09:19;;;;;;;2.20;1.30;;;;;;;;;;10435544;28;20337;-78
2023/05/04 13:14:20;;;;;;;2.80;1.10;;;;;;;;;;10436481;28;20206;-78
2023/05/04 13:19:21;;;;;;;1.75;0.95;;;;;;;;;;10432436;28;20219;-78
2023/05/04 13:24:22;;;;;;;4.35;1.30;;;;;;;;;;10428106;28;20301;-77
2023/05/04 13:29:23;;;;;;;1.15;1.05;;;;;;;;;;10437889;28;20222;-80
2023/05/04 13:34:24;;;;;;;0.90;0.90;;;;;;;;;;10442150;28;20214;-78
2023/05/04 13:39:26;;;;;;;1.50;1.20;;;;;;;;;;10444352;28;20214;-78
2023/05/04 13:44:27;;;;;;;1.85;0.85;;;;;;;;;;10431361;28;20218;-77
2023/05/04 13:49:28;;;;;;;1.95;0.73;;;;;;;;;;10430344;28;20300;-78
2023/05/04 13:54:29;;;;;;;3.30;0.80;;;;;;;;;;10445777;28;20249;-76
2023/05/04 13:59:30;;;;;;;2.72;0.80;;;;;;;;;;10425693;28;20887;-80
2023/05/04 14:04:31;;;;;;;3.20;0.70;;;;;;;;;;10430565;28;20330;-75
2023/05/04 14:09:32;;;;;;;2.28;0.88;;;;;;;;;;10428849;28;20210;-80
2023/05/04 14:14:33;;;;;;;5.25;1.10;;;;;;;;;;10421039;28;20348;-79
2023/05/04 14:19:34;;;;;;;1.48;0.90;;;;;;;;;;10432908;28;20688;-78
2023/05/04 14:24:36;;;;;;;2.10;1.00;;;;;;;;;;10435898;28;20246;-78
2023/05/04 14:29:37;;;;;;;2.17;0.82;;;;;;;;;;10419617;28;20225;-76
2023/05/04 14:34:38;;;;;;;3.03;1.00;;;;;;;;;;10429656;28;20238;-78
2023/05/04 14:39:39;;;;;;;0.85;0.85;;;;;;;;;;10427398;28;20859;-78
2023/05/04 14:44:40;;;;;;;14.27;0.95;;;;;;;;;;10428089;28;20223;-78
2023/05/04 14:49:41;;;;;;;4.32;1.23;;;;;;;;;;10422142;28;20214;-79
2023/05/04 14:54:42;;;;;;;1.05;1.05;;;;;;;;;;10406794;28;20707;-78
2023/05/04 14:59:44;;;;;;;1.08;0.98;;;;;;;;;;10403415;28;20207;-78
2023/05/04 15:04:45;;;;;;;0.80;0.80;;;;;;;;;;10438945;28;20229;-78
2023/05/04 15:09:46;;;;;;;0.82;0.82;;;;;;;;;;10428604;28;20309;-77
2023/05/04 15:14:47;;;;;;;3.38;0.85;;;;;;;;;;10433881;28;20731;-80
2023/05/04 15:19:48;;;;;;;4.30;0.90;;;;;;;;;;10437477;28;20225;-79
2023/05/04 15:24:50;;;;;;;1.23;1.02;;;;;;;;;;10427967;28;23782;-79
2023/05/04 15:29:51;;;;;;;2.35;0.93;;;;;;;;;;10446717;28;20216;-78
2023/05/04 15:34:52;;;;;;;4.03;0.70;;;;;;;;;;10414174;28;20219;-81
2023/05/04 15:39:53;;;;;;;4.47;1.10;;;;;;;;;;10431752;28;20305;-76
2023/05/04 15:44:54;;;;;;;0.70;0.70;;;;;;;;;;10435411;28;20298;-78
2023/05/04 15:49:55;;;;;;;2.28;1.00;;;;;;;;;;10432912;28;20253;-78
2023/05/04 15:55:00;;;;;;;0.95;0.90;;;;;;;;;;10428735;28;20668;-79
2023/05/04 16:00:03;;;;;;;1.48;0.90;;;;;;;;;;10425785;28;20364;-79
2023/05/04 16:05:06;;;;;;;0.80;0.80;;;;;;;;;;10460137;28;20214;-81
2023/05/04 16:10:07;;;;;;;4.13;0.60;;;;;;;;;;10468695;28;20218;-79
2023/05/04 16:15:08;;;;;;;3.25;0.88;;;;;;;;;;10435307;28;20218;-79
2023/05/04 16:20:09;;;;;;;1.05;0.95;;;;;;;;;;10461587;28;20202;-79
2023/05/04 16:25:10;;;;;;;1.85;1.17;;;;;;;;;;10414725;28;20245;-79
2023/05/04 16:30:12;;;;;;;4.38;0.75;;;;;;;;;;10441221;28;20226;-78
2023/05/04 16:35:13;;;;;;;2.40;1.05;;;;;;;;;;10422176;28;20221;-77
2023/05/04 16:40:14;;;;;;;1.65;0.90;;;;;;;;;;10421204;28;20222;-81
2023/05/04 16:45:15;;;;;;;0.82;0.80;;;;;;;;;;10415992;28;20978;-78
2023/05/04 16:50:16;;;;;;;1.35;1.02;;;;;;;;;;10429016;28;20221;-80
2023/05/04 16:55:17;;;;;;;1.60;0.90;;;;;;;;;;10440916;28;20319;-78
2023/05/04 17:00:18;;;;;;;2.80;1.15;;;;;;;;;;10453437;28;20713;-78
2023/05/04 17:05:19;;;;;;;1.35;1.00;;;;;;;;;;10447486;28;20279;-78
2023/05/04 17:10:20;;;;;;;1.25;1.23;;;;;;;;;;10447389;28;20325;-78
2023/05/04 17:15:22;;;;;;;3.00;1.08;;;;;;;;;;10444243;28;20239;-81
2023/05/04 17:20:27;;;;;;;1.30;1.20;;;;;;;;;;10450199;28;20226;-76
2023/05/04 17:25:28;;;;;;;3.72;1.33;;;;;;;;;;10435917;28;20302;-77
2023/05/04 17:30:29;;;;;;;2.17;1.13;;;;;;;;;;10441409;28;20745;-78
2023/05/04 17:35:30;;;;;;;1.52;1.15;;;;;;;;;;10431408;28;20237;-77
2023/05/04 17:40:31;;;;;;;1.00;1.00;;;;;;;;;;10429177;28;20230;-77
2023/05/04 17:45:32;;;;;;;1.52;1.30;;;;;;;;;;10425766;28;21956;-77
2023/05/04 17:50:44;;;;;;;1.55;1.38;;;;;;;;;;10434053;28;20834;-78
2023/05/04 17:55:45;;;;;;;5.03;1.35;;;;;;;;;;10424011;28;20219;-77
2023/05/04 18:00:46;;;;;;;10.02;1.70;;;;;;;;;;10416434;28;20256;-78
2023/05/04 18:05:47;;;;;;;1.63;0.90;;;;;;;;;;10435129;28;20247;-78
2023/05/04 18:10:49;;;;;;;4.03;1.30;;;;;;;;;;10436151;28;20238;-79
2023/05/04 18:15:50;;;;;;;1.55;1.45;;;;;;;;;;10434744;28;21038;-80
2023/05/04 18:20:51;;;;;;;1.38;1.38;;;;;;;;;;10435563;28;20218;-80
2023/05/04 18:25:52;;;;;;;1.35;1.35;;;;;;;;;;10420070;28;20209;-79
2023/05/04 18:30:53;;;;;;;2.42;1.45;;;;;;;;;;10441371;28;20229;-78
2023/05/04 18:35:54;;;;;;;2.47;1.52;;;;;;;;;;10434404;28;21174;-77
2023/05/04 18:40:55;;;;;;;2.65;1.38;;;;;;;;;;10433423;28;20222;-77
2023/05/04 18:45:56;;;;;;;6.88;1.30;;;;;;;;;;10434311;28;20687;-80
2023/05/04 18:50:57;;;;;;;6.07;1.70;;;;;;;;;;10436318;28;20222;-78
2023/05/04 18:55:59;;;;;;;1.42;1.42;;;;;;;;;;10432015;28;20217;-77
2023/05/04 19:01:00;;;;;;;2.22;1.85;;;;;;;;;;10414975;28;20844;-78
2023/05/04 19:06:02;;;;;;;2.38;2.17;;;;;;;;;;10425942;28;21034;-78
2023/05/04 19:11:03;;;;;;;3.13;2.20;;;;;;;;;;10433470;28;20305;-78
2023/05/04 19:16:04;;;;;;;2.05;2.00;;;;;;;;;;10422650;28;20218;-77
2023/05/04 19:21:06;;;;;;;3.83;2.70;;;;;;;;;;10430820;28;20271;-77
2023/05/04 19:26:07;;;;;;;5.45;2.53;;;;;;;;;;10428701;28;20270;-77
2023/05/04 19:31:08;;;;;;;2.92;2.72;;;;;;;;;;10424081;28;20332;-77
2023/05/04 19:36:09;;;;;;;3.08;2.22;;;;;;;;;;10435699;28;20310;-79
2023/05/04 19:41:10;;;;;;;2.28;2.15;;;;;;;;;;10414912;28;20218;-79
2023/05/04 19:46:11;;;;;;;4.03;1.95;;;;;;;;;;10428088;28;20222;-77
2023/05/04 19:51:12;;;;;;;2.30;2.13;;;;;;;;;;10417427;28;20223;-77
2023/05/04 19:56:13;;;;;;;2.67;2.20;;;;;;;;;;10433198;28;20301;-78
2023/05/04 20:01:14;;;;;;;2.28;2.17;;;;;;;;;;10432060;28;20606;-78
2023/05/04 20:06:15;;;;;;;2.00;1.90;;;;;;;;;;10418142;28;20214;-78
2023/05/04 20:11:16;;;;;;;1.60;1.50;;;;;;;;;;10437182;28;20226;-77
2023/05/04 20:16:18;;;;;;;2.42;1.75;;;;;;;;;;10443320;28;20237;-78
2023/05/04 20:21:18;;;;;;;2.25;1.65;;;;;;;;;;10443068;28;21034;-78
2023/05/04 20:26:20;;;;;;;1.80;1.70;;;;;;;;;;10438594;28;20221;-78
2023/05/04 20:31:21;;;;;;;2.95;2.00;;;;;;;;;;10430449;28;20214;-76
2023/05/04 20:36:22;;;;;;;1.90;1.80;;;;;;;;;;10452314;28;20997;-77
2023/05/04 20:41:24;;;;;;;1.50;1.40;;;;;;;;;;10430996;28;20219;-76
2023/05/04 20:46:25;;;;;;;2.60;2.10;;;;;;;;;;10424836;28;20364;-76
2023/05/04 20:51:26;;;;;;;2.22;1.95;;;;;;;;;;10406981;28;20230;-77
2023/05/04 20:56:27;;;;;;;1.65;1.55;;;;;;;;;;10428804;28;20218;-78
2023/05/04 21:01:28;;;;;;;2.40;1.73;;;;;;;;;;10425458;28;20210;-74
2023/05/04 21:06:30;;;;;;;1.38;1.20;;;;;;;;;;10434460;28;20245;-78
2023/05/04 21:11:31;;;;;;;5.18;1.50;;;;;;;;;;10436516;28;20309;-77
2023/05/04 21:16:32;;;;;;;1.20;1.20;;;;;;;;;;10444605;28;20222;-78
2023/05/04 21:21:36;;;;;;;2.70;1.67;;;;;;;;;;10453302;28;20250;-76
2023/05/04 21:26:36;;;;;;;1.40;1.30;;;;;;;;;;10442494;28;20245;-77
2023/05/04 21:31:38;;;;;;;1.63;1.23;;;;;;;;;;10440440;28;20234;-78
2023/05/04 21:36:40;;;;;;;2.50;1.20;;;;;;;;;;10449230;28;20747;-78
2023/05/04 21:41:41;;;;;;;2.53;1.23;;;;;;;;;;10437419;28;20218;-76
2023/05/04 21:46:42;;;;;;;1.25;1.25;;;;;;;;;;10445520;28;20213;-76
2023/05/04 21:51:43;;;;;;;4.68;1.30;;;;;;;;;;10445971;28;20223;-76
2023/05/04 21:56:44;;;;;;;5.35;1.63;;;;;;;;;;10441816;28;20218;-76
2023/05/04 22:01:46;;;;;;;1.17;1.17;;;;;;;;;;10412442;28;20639;-74
2023/05/04 22:06:47;;;;;;;2.47;1.67;;;;;;;;;;10446305;28;20764;-74
2023/05/04 22:11:50;;;;;;;2.38;1.02;;;;;;;;;;10445961;28;20222;-74
2023/05/04 22:16:51;;;;;;;3.78;1.38;;;;;;;;;;10448234;28;20783;-74
2023/05/04 22:21:52;;;;;;;3.03;1.42;;;;;;;;;;10437502;28;20245;-75
2023/05/04 22:26:53;;;;;;;1.67;1.58;;;;;;;;;;10434890;28;21002;-73
2023/05/04 22:31:54;;;;;;;2.70;1.67;;;;;;;;;;10446173;28;20220;-76
2023/05/04 22:36:55;;;;;;;1.80;1.70;;;;;;;;;;10443073;28;20226;-75
2023/05/04 22:41:56;;;;;;;3.45;1.63;;;;;;;;;;10441916;28;20271;-76
2023/05/04 22:46:57;;;;;;;2.50;1.60;;;;;;;;;;10423950;28;20221;-76
2023/05/04 22:51:59;;;;;;;6.05;1.85;;;;;;;;;;10432930;28;20221;-76
2023/05/04 22:57:00;;;;;;;4.47;1.92;;;;;;;;;;10429748;28;20629;-75
2023/05/04 23:02:01;;;;;;;3.20;2.28;;;;;;;;;;10428652;28;20768;-76
2023/05/04 23:07:02;;;;;;;5.85;2.60;;;;;;;;;;10437394;28;20213;-75
2023/05/04 23:12:04;;;;;;;4.55;2.67;;;;;;;;;;10435611;28;21517;-75
2023/05/04 23:17:05;;;;;;;2.60;2.42;;;;;;;;;;10436072;28;20218;-76
2023/05/04 23:22:05;;;;;;;5.07;2.08;;;;;;;;;;10443085;28;20218;-74
2023/05/04 23:27:06;;;;;;;4.65;2.38;;;;;;;;;;10437314;28;20256;-73
2023/05/04 23:32:07;;;;;;;3.13;2.92;;;;;;;;;;10425768;28;20274;-74
2023/05/04 23:37:08;;;;;;;5.03;3.95;;;;;;;;;;10436919;28;20688;-76
2023/05/04 23:42:09;;;;;;;3.50;3.22;;;;;;;;;;10436944;28;20236;-73
2023/05/04 23:47:10;;;;;;;7.90;3.22;;;;;;;;;;10441190;28;20647;-78
2023/05/04 23:52:11;;;;;;;3.67;3.33;;;;;;;;;;10444167;28;20221;-74
2023/05/04 23:57:12;;;;;;;4.82;3.17;;;;;;;;;;10443988;28;20224;-73
